sensor_id;sensor_type;location;lat;lon;timestamp;P1;durP1;ratioP1;P2;durP2;ratioP2
21046;SDS011;10682;50.874;3.656;2023-09-19T00:03:12;15.83;;;2.77;;
21046;SDS011;10682;50.874;3.656;2023-09-19T00:05:26;14.63;;;2.90;;
21046;SDS011;10682;50.874;3.656;2023-09-19T00:08:04;12.00;;;2.60;;
21046;SDS011;10682;50.874;3.656;2023-09-19T00:10:38;11.27;;;2.40;;
21046;SDS011;10682;50.874;3.656;2023-09-19T00:13:13;13.20;;;2.40;;
21046;SDS011;10682;50.874;3.656;2023-09-19T00:15:43;12.45;;;2.55;;
21046;SDS011;10682;50.874;3.656;2023-09-19T00:18:25;14.80;;;2.80;;
21046;SDS011;10682;50.874;3.656;2023-09-19T00:20:58;20.13;;;2.55;;
21046;SDS011;10682;50.874;3.656;2023-09-19T00:23:38;14.57;;;2.60;;
21046;SDS011;10682;50.874;3.656;2023-09-19T00:26:07;18.50;;;3.10;;
21046;SDS011;10682;50.874;3.656;2023-09-19T00:28:35;14.82;;;2.75;;
21046;SDS011;10682;50.874;3.656;2023-09-19T00:31:03;20.10;;;2.53;;
21046;SDS011;10682;50.874;3.656;2023-09-19T00:33:31;12.03;;;2.43;;
21046;SDS011;10682;50.874;3.656;2023-09-19T00:36:02;15.10;;;2.47;;
21046;SDS011;10682;50.874;3.656;2023-09-19T00:38:38;15.10;;;2.33;;
21046;SDS011;10682;50.874;3.656;2023-09-19T00:41:05;14.90;;;2.72;;
21046;SDS011;10682;50.874;3.656;2023-09-19T00:43:43;16.53;;;2.67;;
21046;SDS011;10682;50.874;3.656;2023-09-19T00:46:39;16.27;;;2.60;;
21046;SDS011;10682;50.874;3.656;2023-09-19T00:49:14;10.45;;;2.35;;
21046;SDS011;10682;50.874;3.656;2023-09-19T00:51:48;11.13;;;2.30;;
21046;SDS011;10682;50.874;3.656;2023-09-19T00:54:17;19.17;;;3.00;;
21046;SDS011;10682;50.874;3.656;2023-09-19T00:56:48;19.17;;;3.67;;
21046;SDS011;10682;50.874;3.656;2023-09-19T00:59:23;13.00;;;2.63;;
21046;SDS011;10682;50.874;3.656;2023-09-19T01:01:53;18.47;;;2.90;;
21046;SDS011;10682;50.874;3.656;2023-09-19T01:04:36;20.20;;;3.00;;
21046;SDS011;10682;50.874;3.656;2023-09-19T01:07:11;18.77;;;2.42;;
21046;SDS011;10682;50.874;3.656;2023-09-19T01:09:46;17.17;;;2.70;;
21046;SDS011;10682;50.874;3.656;2023-09-19T01:12:13;20.08;;;2.85;;
21046;SDS011;10682;50.874;3.656;2023-09-19T01:14:59;17.97;;;2.60;;
21046;SDS011;10682;50.874;3.656;2023-09-19T01:23:50;14.20;;;2.60;;
21046;SDS011;10682;50.874;3.656;2023-09-19T01:29:48;19.73;;;3.17;;
21046;SDS011;10682;50.874;3.656;2023-09-19T01:32:17;17.03;;;2.97;;
21046;SDS011;10682;50.874;3.656;2023-09-19T01:35:01;18.53;;;3.00;;
21046;SDS011;10682;50.874;3.656;2023-09-19T01:37:33;13.83;;;2.87;;
21046;SDS011;10682;50.874;3.656;2023-09-19T01:40:03;20.33;;;2.63;;
21046;SDS011;10682;50.874;3.656;2023-09-19T01:45:34;16.50;;;2.60;;
21046;SDS011;10682;50.874;3.656;2023-09-19T01:48:19;17.33;;;2.40;;
21046;SDS011;10682;50.874;3.656;2023-09-19T01:51:01;20.00;;;2.95;;
21046;SDS011;10682;50.874;3.656;2023-09-19T01:56:54;13.23;;;2.78;;
21046;SDS011;10682;50.874;3.656;2023-09-19T01:59:35;14.30;;;2.97;;
21046;SDS011;10682;50.874;3.656;2023-09-19T02:02:11;15.50;;;2.88;;
21046;SDS011;10682;50.874;3.656;2023-09-19T02:04:39;17.88;;;2.80;;
21046;SDS011;10682;50.874;3.656;2023-09-19T02:07:12;19.95;;;2.67;;
21046;SDS011;10682;50.874;3.656;2023-09-19T02:09:49;24.55;;;2.88;;
21046;SDS011;10682;50.874;3.656;2023-09-19T02:12:21;13.90;;;2.78;;
21046;SDS011;10682;50.874;3.656;2023-09-19T02:14:49;14.85;;;3.03;;
21046;SDS011;10682;50.874;3.656;2023-09-19T02:17:16;17.77;;;2.75;;
21046;SDS011;10682;50.874;3.656;2023-09-19T02:19:44;16.05;;;2.60;;
21046;SDS011;10682;50.874;3.656;2023-09-19T02:22:14;10.52;;;2.60;;
21046;SDS011;10682;50.874;3.656;2023-09-19T02:24:43;18.33;;;2.67;;
21046;SDS011;10682;50.874;3.656;2023-09-19T02:27:12;17.70;;;2.70;;
21046;SDS011;10682;50.874;3.656;2023-09-19T02:29:44;16.70;;;2.67;;
21046;SDS011;10682;50.874;3.656;2023-09-19T02:32:11;17.77;;;2.50;;
21046;SDS011;10682;50.874;3.656;2023-09-19T02:34:39;15.27;;;2.47;;
21046;SDS011;10682;50.874;3.656;2023-09-19T02:37:14;14.87;;;2.50;;
21046;SDS011;10682;50.874;3.656;2023-09-19T02:39:43;16.97;;;2.30;;
21046;SDS011;10682;50.874;3.656;2023-09-19T02:42:11;12.52;;;2.38;;
21046;SDS011;10682;50.874;3.656;2023-09-19T02:44:40;18.92;;;2.78;;
21046;SDS011;10682;50.874;3.656;2023-09-19T02:47:08;10.10;;;2.15;;
21046;SDS011;10682;50.874;3.656;2023-09-19T02:49:38;12.38;;;2.13;;
21046;SDS011;10682;50.874;3.656;2023-09-19T02:52:12;15.35;;;2.50;;
21046;SDS011;10682;50.874;3.656;2023-09-19T02:54:43;17.15;;;2.63;;
21046;SDS011;10682;50.874;3.656;2023-09-19T02:57:15;19.83;;;2.33;;
21046;SDS011;10682;50.874;3.656;2023-09-19T02:59:46;19.83;;;2.63;;
21046;SDS011;10682;50.874;3.656;2023-09-19T03:02:14;12.90;;;2.57;;
21046;SDS011;10682;50.874;3.656;2023-09-19T03:04:53;17.67;;;2.63;;
21046;SDS011;10682;50.874;3.656;2023-09-19T03:07:23;14.07;;;2.60;;
21046;SDS011;10682;50.874;3.656;2023-09-19T03:09:51;16.00;;;2.70;;
21046;SDS011;10682;50.874;3.656;2023-09-19T03:12:29;18.87;;;2.63;;
21046;SDS011;10682;50.874;3.656;2023-09-19T03:14:57;10.50;;;2.42;;
21046;SDS011;10682;50.874;3.656;2023-09-19T03:17:27;18.58;;;2.75;;
21046;SDS011;10682;50.874;3.656;2023-09-19T03:19:58;12.30;;;2.60;;
21046;SDS011;10682;50.874;3.656;2023-09-19T03:22:29;11.73;;;2.55;;
21046;SDS011;10682;50.874;3.656;2023-09-19T03:24:56;16.70;;;3.08;;
21046;SDS011;10682;50.874;3.656;2023-09-19T03:27:26;13.07;;;3.00;;
21046;SDS011;10682;50.874;3.656;2023-09-19T03:30:23;15.40;;;2.57;;
21046;SDS011;10682;50.874;3.656;2023-09-19T03:32:50;15.43;;;2.90;;
21046;SDS011;10682;50.874;3.656;2023-09-19T03:35:31;14.68;;;2.90;;
21046;SDS011;10682;50.874;3.656;2023-09-19T03:37:59;22.03;;;3.10;;
21046;SDS011;10682;50.874;3.656;2023-09-19T03:40:27;23.07;;;2.80;;
21046;SDS011;10682;50.874;3.656;2023-09-19T03:43:06;18.30;;;2.60;;
21046;SDS011;10682;50.874;3.656;2023-09-19T03:45:37;12.03;;;2.43;;
21046;SDS011;10682;50.874;3.656;2023-09-19T03:48:09;10.27;;;2.20;;
21046;SDS011;10682;50.874;3.656;2023-09-19T03:50:41;19.50;;;3.30;;
21046;SDS011;10682;50.874;3.656;2023-09-19T03:53:12;16.70;;;2.07;;
21046;SDS011;10682;50.874;3.656;2023-09-19T03:55:44;15.70;;;2.42;;
21046;SDS011;10682;50.874;3.656;2023-09-19T03:58:22;15.13;;;2.60;;
21046;SDS011;10682;50.874;3.656;2023-09-19T04:01:00;15.43;;;2.88;;
21046;SDS011;10682;50.874;3.656;2023-09-19T04:03:37;13.82;;;2.45;;
21046;SDS011;10682;50.874;3.656;2023-09-19T04:06:18;16.20;;;2.37;;
21046;SDS011;10682;50.874;3.656;2023-09-19T04:08:50;22.17;;;3.45;;
21046;SDS011;10682;50.874;3.656;2023-09-19T04:11:22;19.40;;;3.10;;
21046;SDS011;10682;50.874;3.656;2023-09-19T04:13:51;18.23;;;2.73;;
21046;SDS011;10682;50.874;3.656;2023-09-19T04:16:18;17.80;;;3.07;;
21046;SDS011;10682;50.874;3.656;2023-09-19T04:18:48;19.73;;;2.87;;
21046;SDS011;10682;50.874;3.656;2023-09-19T04:21:23;15.75;;;3.28;;
21046;SDS011;10682;50.874;3.656;2023-09-19T04:23:54;26.40;;;2.90;;
21046;SDS011;10682;50.874;3.656;2023-09-19T04:26:21;14.33;;;3.00;;
21046;SDS011;10682;50.874;3.656;2023-09-19T04:29:02;18.10;;;3.00;;
21046;SDS011;10682;50.874;3.656;2023-09-19T04:31:32;22.43;;;2.87;;
21046;SDS011;10682;50.874;3.656;2023-09-19T04:34:03;16.20;;;2.60;;
21046;SDS011;10682;50.874;3.656;2023-09-19T04:36:31;25.60;;;3.13;;
21046;SDS011;10682;50.874;3.656;2023-09-19T04:39:03;21.60;;;3.03;;
21046;SDS011;10682;50.874;3.656;2023-09-19T04:41:57;18.53;;;2.83;;
21046;SDS011;10682;50.874;3.656;2023-09-19T04:47:07;20.07;;;3.27;;
21046;SDS011;10682;50.874;3.656;2023-09-19T04:52:06;16.93;;;2.87;;
21046;SDS011;10682;50.874;3.656;2023-09-19T04:54:33;18.03;;;2.50;;
21046;SDS011;10682;50.874;3.656;2023-09-19T04:57:01;16.23;;;3.37;;
21046;SDS011;10682;50.874;3.656;2023-09-19T04:59:32;22.53;;;2.87;;
21046;SDS011;10682;50.874;3.656;2023-09-19T05:04:41;20.97;;;3.37;;
21046;SDS011;10682;50.874;3.656;2023-09-19T05:07:19;15.27;;;2.85;;
21046;SDS011;10682;50.874;3.656;2023-09-19T05:09:55;15.10;;;3.10;;
21046;SDS011;10682;50.874;3.656;2023-09-19T05:12:23;17.33;;;3.10;;
21046;SDS011;10682;50.874;3.656;2023-09-19T05:17:47;19.47;;;2.30;;
21046;SDS011;10682;50.874;3.656;2023-09-19T05:20:25;13.17;;;2.50;;
21046;SDS011;10682;50.874;3.656;2023-09-19T05:23:00;18.40;;;2.93;;
21046;SDS011;10682;50.874;3.656;2023-09-19T05:25:40;18.15;;;3.00;;
21046;SDS011;10682;50.874;3.656;2023-09-19T05:28:09;18.13;;;2.77;;
21046;SDS011;10682;50.874;3.656;2023-09-19T05:30:41;16.80;;;3.00;;
21046;SDS011;10682;50.874;3.656;2023-09-19T05:33:15;14.20;;;2.27;;
21046;SDS011;10682;50.874;3.656;2023-09-19T05:35:45;20.90;;;2.80;;
21046;SDS011;10682;50.874;3.656;2023-09-19T05:38:17;16.20;;;2.97;;
21046;SDS011;10682;50.874;3.656;2023-09-19T05:40:46;15.88;;;2.70;;
21046;SDS011;10682;50.874;3.656;2023-09-19T05:43:13;17.23;;;2.37;;
21046;SDS011;10682;50.874;3.656;2023-09-19T05:45:41;17.40;;;3.03;;
21046;SDS011;10682;50.874;3.656;2023-09-19T05:48:08;17.23;;;2.60;;
21046;SDS011;10682;50.874;3.656;2023-09-19T05:50:41;20.07;;;3.03;;
21046;SDS011;10682;50.874;3.656;2023-09-19T05:53:17;14.73;;;3.00;;
21046;SDS011;10682;50.874;3.656;2023-09-19T05:55:46;17.63;;;3.23;;
21046;SDS011;10682;50.874;3.656;2023-09-19T05:58:16;12.07;;;2.50;;
21046;SDS011;10682;50.874;3.656;2023-09-19T06:00:44;13.37;;;2.63;;
21046;SDS011;10682;50.874;3.656;2023-09-19T06:03:13;18.97;;;2.73;;
21046;SDS011;10682;50.874;3.656;2023-09-19T06:05:42;13.87;;;2.67;;
21046;SDS011;10682;50.874;3.656;2023-09-19T06:08:09;18.87;;;2.43;;
21046;SDS011;10682;50.874;3.656;2023-09-19T06:10:36;17.80;;;2.83;;
21046;SDS011;10682;50.874;3.656;2023-09-19T06:13:05;15.73;;;2.67;;
21046;SDS011;10682;50.874;3.656;2023-09-19T06:15:32;17.63;;;2.70;;
21046;SDS011;10682;50.874;3.656;2023-09-19T06:18:04;16.33;;;2.70;;
21046;SDS011;10682;50.874;3.656;2023-09-19T06:20:40;17.90;;;2.53;;
21046;SDS011;10682;50.874;3.656;2023-09-19T06:23:11;10.93;;;2.30;;
21046;SDS011;10682;50.874;3.656;2023-09-19T06:25:39;23.90;;;3.63;;
21046;SDS011;10682;50.874;3.656;2023-09-19T06:28:07;16.00;;;2.83;;
21046;SDS011;10682;50.874;3.656;2023-09-19T06:30:42;22.50;;;2.67;;
21046;SDS011;10682;50.874;3.656;2023-09-19T06:33:10;14.53;;;2.57;;
21046;SDS011;10682;50.874;3.656;2023-09-19T06:35:41;14.40;;;2.10;;
21046;SDS011;10682;50.874;3.656;2023-09-19T06:38:18;18.27;;;2.80;;
21046;SDS011;10682;50.874;3.656;2023-09-19T06:40:45;13.43;;;2.57;;
21046;SDS011;10682;50.874;3.656;2023-09-19T06:43:12;20.40;;;2.40;;
21046;SDS011;10682;50.874;3.656;2023-09-19T06:45:40;13.95;;;2.33;;
21046;SDS011;10682;50.874;3.656;2023-09-19T06:48:18;17.42;;;2.67;;
21046;SDS011;10682;50.874;3.656;2023-09-19T06:50:50;11.35;;;2.65;;
21046;SDS011;10682;50.874;3.656;2023-09-19T06:53:31;14.80;;;2.40;;
21046;SDS011;10682;50.874;3.656;2023-09-19T06:56:11;12.23;;;2.40;;
21046;SDS011;10682;50.874;3.656;2023-09-19T06:59:09;14.20;;;2.20;;
21046;SDS011;10682;50.874;3.656;2023-09-19T07:01:47;20.27;;;2.87;;
21046;SDS011;10682;50.874;3.656;2023-09-19T07:04:16;13.03;;;2.60;;
21046;SDS011;10682;50.874;3.656;2023-09-19T07:06:52;13.57;;;2.77;;
21046;SDS011;10682;50.874;3.656;2023-09-19T07:09:20;15.00;;;2.63;;
21046;SDS011;10682;50.874;3.656;2023-09-19T07:11:58;18.30;;;2.70;;
21046;SDS011;10682;50.874;3.656;2023-09-19T07:14:32;15.50;;;2.58;;
21046;SDS011;10682;50.874;3.656;2023-09-19T07:17:01;14.48;;;2.80;;
21046;SDS011;10682;50.874;3.656;2023-09-19T07:19:32;20.05;;;2.47;;
21046;SDS011;10682;50.874;3.656;2023-09-19T07:21:59;15.70;;;2.35;;
21046;SDS011;10682;50.874;3.656;2023-09-19T07:24:28;11.80;;;2.40;;
21046;SDS011;10682;50.874;3.656;2023-09-19T07:27:02;15.27;;;2.55;;
21046;SDS011;10682;50.874;3.656;2023-09-19T07:29:32;13.63;;;2.13;;
21046;SDS011;10682;50.874;3.656;2023-09-19T07:31:59;11.55;;;2.58;;
21046;SDS011;10682;50.874;3.656;2023-09-19T07:34:33;17.73;;;2.78;;
21046;SDS011;10682;50.874;3.656;2023-09-19T07:37:03;15.90;;;2.42;;
21046;SDS011;10682;50.874;3.656;2023-09-19T07:39:34;12.70;;;2.88;;
21046;SDS011;10682;50.874;3.656;2023-09-19T07:42:01;20.33;;;2.78;;
21046;SDS011;10682;50.874;3.656;2023-09-19T07:44:36;21.45;;;3.28;;
21046;SDS011;10682;50.874;3.656;2023-09-19T07:47:29;13.93;;;2.60;;
21046;SDS011;10682;50.874;3.656;2023-09-19T07:50:15;10.82;;;2.50;;
21046;SDS011;10682;50.874;3.656;2023-09-19T07:52:49;14.68;;;2.45;;
21046;SDS011;10682;50.874;3.656;2023-09-19T07:55:28;13.93;;;2.88;;
21046;SDS011;10682;50.874;3.656;2023-09-19T07:58:00;20.55;;;2.85;;
21046;SDS011;10682;50.874;3.656;2023-09-19T08:00:30;11.63;;;2.22;;
21046;SDS011;10682;50.874;3.656;2023-09-19T08:03:01;16.73;;;2.20;;
21046;SDS011;10682;50.874;3.656;2023-09-19T08:05:44;13.55;;;2.22;;
21046;SDS011;10682;50.874;3.656;2023-09-19T08:08:30;17.95;;;2.60;;
21046;SDS011;10682;50.874;3.656;2023-09-19T08:10:59;19.30;;;2.72;;
21046;SDS011;10682;50.874;3.656;2023-09-19T08:13:40;18.95;;;2.90;;
21046;SDS011;10682;50.874;3.656;2023-09-19T08:16:11;13.10;;;2.40;;
21046;SDS011;10682;50.874;3.656;2023-09-19T08:18:46;13.88;;;2.22;;
21046;SDS011;10682;50.874;3.656;2023-09-19T08:21:24;14.70;;;2.65;;
21046;SDS011;10682;50.874;3.656;2023-09-19T08:24:00;15.13;;;2.25;;
21046;SDS011;10682;50.874;3.656;2023-09-19T08:26:30;11.63;;;2.35;;
21046;SDS011;10682;50.874;3.656;2023-09-19T08:29:01;13.40;;;2.40;;
21046;SDS011;10682;50.874;3.656;2023-09-19T08:31:35;17.73;;;2.83;;
21046;SDS011;10682;50.874;3.656;2023-09-19T08:34:05;12.82;;;2.30;;
21046;SDS011;10682;50.874;3.656;2023-09-19T08:36:33;16.17;;;2.65;;
21046;SDS011;10682;50.874;3.656;2023-09-19T08:39:02;18.42;;;2.38;;
21046;SDS011;10682;50.874;3.656;2023-09-19T08:41:36;12.95;;;3.05;;
21046;SDS011;10682;50.874;3.656;2023-09-19T08:44:04;12.45;;;2.50;;
21046;SDS011;10682;50.874;3.656;2023-09-19T08:53:01;9.23;;;1.70;;
21046;SDS011;10682;50.874;3.656;2023-09-19T08:55:30;10.60;;;1.90;;
21046;SDS011;10682;50.874;3.656;2023-09-19T08:58:15;13.43;;;2.65;;
21046;SDS011;10682;50.874;3.656;2023-09-19T09:00:53;11.00;;;1.90;;
21046;SDS011;10682;50.874;3.656;2023-09-19T09:03:30;11.77;;;2.33;;
21046;SDS011;10682;50.874;3.656;2023-09-19T09:06:07;11.45;;;1.77;;
21046;SDS011;10682;50.874;3.656;2023-09-19T09:09:05;11.40;;;2.00;;
21046;SDS011;10682;50.874;3.656;2023-09-19T09:11:45;13.02;;;2.30;;
21046;SDS011;10682;50.874;3.656;2023-09-19T09:14:21;10.38;;;2.35;;
21046;SDS011;10682;50.874;3.656;2023-09-19T09:16:53;7.80;;;1.77;;
21046;SDS011;10682;50.874;3.656;2023-09-19T09:19:30;9.68;;;2.17;;
21046;SDS011;10682;50.874;3.656;2023-09-19T09:22:09;8.82;;;1.58;;
21046;SDS011;10682;50.874;3.656;2023-09-19T09:25:00;10.23;;;1.80;;
21046;SDS011;10682;50.874;3.656;2023-09-19T09:27:40;10.93;;;1.85;;
21046;SDS011;10682;50.874;3.656;2023-09-19T09:30:07;8.75;;;1.80;;
21046;SDS011;10682;50.874;3.656;2023-09-19T09:33:13;10.25;;;1.88;;
21046;SDS011;10682;50.874;3.656;2023-09-19T09:38:52;9.20;;;1.67;;
21046;SDS011;10682;50.874;3.656;2023-09-19T09:41:41;9.90;;;1.65;;
21046;SDS011;10682;50.874;3.656;2023-09-19T09:44:20;15.45;;;2.00;;
21046;SDS011;10682;50.874;3.656;2023-09-19T09:47:07;9.70;;;1.90;;
21046;SDS011;10682;50.874;3.656;2023-09-19T09:49:56;10.10;;;1.63;;
21046;SDS011;10682;50.874;3.656;2023-09-19T09:58:38;14.90;;;2.20;;
21046;SDS011;10682;50.874;3.656;2023-09-19T10:01:51;8.98;;;1.80;;
21046;SDS011;10682;50.874;3.656;2023-09-19T10:04:31;12.32;;;1.63;;
21046;SDS011;10682;50.874;3.656;2023-09-19T10:10:14;9.77;;;1.92;;
21046;SDS011;10682;50.874;3.656;2023-09-19T10:13:35;8.18;;;1.38;;
21046;SDS011;10682;50.874;3.656;2023-09-19T10:16:20;7.57;;;1.48;;
21046;SDS011;10682;50.874;3.656;2023-09-19T10:19:01;7.47;;;1.60;;
21046;SDS011;10682;50.874;3.656;2023-09-19T10:24:24;7.28;;;1.80;;
21046;SDS011;10682;50.874;3.656;2023-09-19T10:27:08;6.60;;;1.27;;
21046;SDS011;10682;50.874;3.656;2023-09-19T10:29:42;6.03;;;1.48;;
21046;SDS011;10682;50.874;3.656;2023-09-19T10:32:18;8.20;;;1.30;;
21046;SDS011;10682;50.874;3.656;2023-09-19T10:34:52;6.05;;;1.63;;
21046;SDS011;10682;50.874;3.656;2023-09-19T10:37:29;9.70;;;1.45;;
21046;SDS011;10682;50.874;3.656;2023-09-19T10:40:00;8.63;;;1.25;;
21046;SDS011;10682;50.874;3.656;2023-09-19T10:42:32;6.22;;;1.10;;
21046;SDS011;10682;50.874;3.656;2023-09-19T10:45:09;4.75;;;1.00;;
21046;SDS011;10682;50.874;3.656;2023-09-19T10:47:44;6.18;;;1.40;;
21046;SDS011;10682;50.874;3.656;2023-09-19T10:50:18;9.50;;;1.40;;
21046;SDS011;10682;50.874;3.656;2023-09-19T10:52:48;5.65;;;1.63;;
21046;SDS011;10682;50.874;3.656;2023-09-19T10:55:20;4.88;;;0.90;;
21046;SDS011;10682;50.874;3.656;2023-09-19T10:57:50;4.65;;;1.10;;
21046;SDS011;10682;50.874;3.656;2023-09-19T11:00:18;6.10;;;1.20;;
21046;SDS011;10682;50.874;3.656;2023-09-19T11:05:59;9.00;;;1.52;;
21046;SDS011;10682;50.874;3.656;2023-09-19T11:30:44;5.85;;;1.20;;
21046;SDS011;10682;50.874;3.656;2023-09-19T11:36:01;9.32;;;1.65;;
21046;SDS011;10682;50.874;3.656;2023-09-19T11:39:25;6.30;;;1.20;;
21046;SDS011;10682;50.874;3.656;2023-09-19T11:42:01;6.63;;;1.30;;
21046;SDS011;10682;50.874;3.656;2023-09-19T11:48:24;5.80;;;1.20;;
21046;SDS011;10682;50.874;3.656;2023-09-19T11:51:24;8.52;;;1.40;;
21046;SDS011;10682;50.874;3.656;2023-09-19T11:54:16;4.43;;;1.38;;
21046;SDS011;10682;50.874;3.656;2023-09-19T11:57:13;8.85;;;1.25;;
21046;SDS011;10682;50.874;3.656;2023-09-19T12:02:49;11.15;;;1.92;;
21046;SDS011;10682;50.874;3.656;2023-09-19T12:05:29;7.15;;;1.35;;
21046;SDS011;10682;50.874;3.656;2023-09-19T12:08:49;9.35;;;1.40;;
21046;SDS011;10682;50.874;3.656;2023-09-19T12:14:50;6.85;;;1.42;;
21046;SDS011;10682;50.874;3.656;2023-09-19T12:27:41;6.35;;;1.38;;
21046;SDS011;10682;50.874;3.656;2023-09-19T12:30:38;7.22;;;1.70;;
21046;SDS011;10682;50.874;3.656;2023-09-19T12:34:03;5.70;;;1.42;;
21046;SDS011;10682;50.874;3.656;2023-09-19T12:36:35;4.20;;;1.20;;
21046;SDS011;10682;50.874;3.656;2023-09-19T12:39:28;6.82;;;1.48;;
21046;SDS011;10682;50.874;3.656;2023-09-19T12:42:03;8.48;;;1.55;;
21046;SDS011;10682;50.874;3.656;2023-09-19T12:44:49;10.63;;;1.50;;
21046;SDS011;10682;50.874;3.656;2023-09-19T12:47:35;5.55;;;1.35;;
21046;SDS011;10682;50.874;3.656;2023-09-19T12:51:17;7.63;;;1.63;;
21046;SDS011;10682;50.874;3.656;2023-09-19T12:54:11;4.72;;;1.42;;
21046;SDS011;10682;50.874;3.656;2023-09-19T12:57:01;4.72;;;1.60;;
21046;SDS011;10682;50.874;3.656;2023-09-19T13:13:47;6.20;;;1.45;;
21046;SDS011;10682;50.874;3.656;2023-09-19T13:16:57;8.02;;;1.73;;
21046;SDS011;10682;50.874;3.656;2023-09-19T13:23:25;7.63;;;1.58;;
21046;SDS011;10682;50.874;3.656;2023-09-19T13:26:55;7.78;;;1.80;;
21046;SDS011;10682;50.874;3.656;2023-09-19T13:30:16;6.13;;;1.52;;
21046;SDS011;10682;50.874;3.656;2023-09-19T13:33:28;8.60;;;1.60;;
21046;SDS011;10682;50.874;3.656;2023-09-19T13:36:16;12.65;;;2.10;;
21046;SDS011;10682;50.874;3.656;2023-09-19T13:39:06;8.95;;;1.95;;
21046;SDS011;10682;50.874;3.656;2023-09-19T13:44:57;8.07;;;1.65;;
21046;SDS011;10682;50.874;3.656;2023-09-19T13:48:00;11.38;;;1.75;;
21046;SDS011;10682;50.874;3.656;2023-09-19T13:51:26;7.68;;;1.80;;
21046;SDS011;10682;50.874;3.656;2023-09-19T13:54:47;8.93;;;1.90;;
21046;SDS011;10682;50.874;3.656;2023-09-19T13:57:43;8.25;;;1.60;;
21046;SDS011;10682;50.874;3.656;2023-09-19T14:04:24;9.50;;;1.70;;
21046;SDS011;10682;50.874;3.656;2023-09-19T14:07:02;10.05;;;2.00;;
21046;SDS011;10682;50.874;3.656;2023-09-19T14:10:12;6.40;;;1.40;;
21046;SDS011;10682;50.874;3.656;2023-09-19T14:13:12;9.52;;;1.70;;
21046;SDS011;10682;50.874;3.656;2023-09-19T14:15:56;6.30;;;1.55;;
21046;SDS011;10682;50.874;3.656;2023-09-19T14:18:52;10.90;;;2.22;;
21046;SDS011;10682;50.874;3.656;2023-09-19T14:22:03;9.50;;;1.90;;
21046;SDS011;10682;50.874;3.656;2023-09-19T14:24:46;11.18;;;1.70;;
21046;SDS011;10682;50.874;3.656;2023-09-19T14:30:35;9.57;;;1.52;;
21046;SDS011;10682;50.874;3.656;2023-09-19T14:34:05;12.00;;;2.00;;
21046;SDS011;10682;50.874;3.656;2023-09-19T14:36:51;7.05;;;1.85;;
21046;SDS011;10682;50.874;3.656;2023-09-19T14:39:35;7.22;;;1.90;;
21046;SDS011;10682;50.874;3.656;2023-09-19T14:42:31;6.00;;;1.52;;
21046;SDS011;10682;50.874;3.656;2023-09-19T14:45:18;12.68;;;2.10;;
21046;SDS011;10682;50.874;3.656;2023-09-19T14:48:07;12.05;;;2.30;;
21046;SDS011;10682;50.874;3.656;2023-09-19T14:51:22;8.18;;;2.08;;
21046;SDS011;10682;50.874;3.656;2023-09-19T15:03:03;6.65;;;1.90;;
21046;SDS011;10682;50.874;3.656;2023-09-19T15:05:50;9.35;;;2.08;;
21046;SDS011;10682;50.874;3.656;2023-09-19T15:08:47;8.65;;;1.80;;
21046;SDS011;10682;50.874;3.656;2023-09-19T15:12:11;13.82;;;2.33;;
21046;SDS011;10682;50.874;3.656;2023-09-19T15:15:22;10.60;;;1.98;;
21046;SDS011;10682;50.874;3.656;2023-09-19T15:18:12;8.02;;;1.75;;
21046;SDS011;10682;50.874;3.656;2023-09-19T15:21:14;8.85;;;1.88;;
21046;SDS011;10682;50.874;3.656;2023-09-19T15:28:03;8.45;;;2.08;;
21046;SDS011;10682;50.874;3.656;2023-09-19T15:31:11;8.60;;;1.95;;
21046;SDS011;10682;50.874;3.656;2023-09-19T15:34:41;8.50;;;2.05;;
21046;SDS011;10682;50.874;3.656;2023-09-19T15:37:24;8.75;;;2.17;;
21046;SDS011;10682;50.874;3.656;2023-09-19T15:39:56;7.40;;;1.73;;
21046;SDS011;10682;50.874;3.656;2023-09-19T15:42:48;11.98;;;2.33;;
21046;SDS011;10682;50.874;3.656;2023-09-19T15:46:05;6.82;;;2.20;;
21046;SDS011;10682;50.874;3.656;2023-09-19T15:48:41;8.02;;;2.08;;
21046;SDS011;10682;50.874;3.656;2023-09-19T15:52:02;8.07;;;2.10;;
21046;SDS011;10682;50.874;3.656;2023-09-19T15:54:53;9.77;;;1.98;;
21046;SDS011;10682;50.874;3.656;2023-09-19T15:57:38;10.50;;;2.22;;
21046;SDS011;10682;50.874;3.656;2023-09-19T16:00:53;10.30;;;2.22;;
21046;SDS011;10682;50.874;3.656;2023-09-19T16:03:54;14.05;;;2.33;;
21046;SDS011;10682;50.874;3.656;2023-09-19T16:06:30;18.27;;;2.25;;
21046;SDS011;10682;50.874;3.656;2023-09-19T16:09:34;10.65;;;2.45;;
21046;SDS011;10682;50.874;3.656;2023-09-19T16:12:38;12.40;;;2.50;;
21046;SDS011;10682;50.874;3.656;2023-09-19T16:15:45;11.05;;;2.30;;
21046;SDS011;10682;50.874;3.656;2023-09-19T16:21:50;15.98;;;2.83;;
21046;SDS011;10682;50.874;3.656;2023-09-19T16:24:54;10.43;;;2.55;;
21046;SDS011;10682;50.874;3.656;2023-09-19T16:30:34;8.35;;;2.53;;
21046;SDS011;10682;50.874;3.656;2023-09-19T16:33:02;9.85;;;2.45;;
21046;SDS011;10682;50.874;3.656;2023-09-19T16:35:37;10.68;;;2.58;;
21046;SDS011;10682;50.874;3.656;2023-09-19T16:38:07;10.32;;;3.10;;
21046;SDS011;10682;50.874;3.656;2023-09-19T16:40:37;10.90;;;3.05;;
21046;SDS011;10682;50.874;3.656;2023-09-19T16:43:08;14.98;;;2.65;;
21046;SDS011;10682;50.874;3.656;2023-09-19T16:45:36;7.07;;;2.30;;
21046;SDS011;10682;50.874;3.656;2023-09-19T16:48:06;8.35;;;2.72;;
21046;SDS011;10682;50.874;3.656;2023-09-19T16:50:52;10.82;;;2.60;;
21046;SDS011;10682;50.874;3.656;2023-09-19T16:53:22;10.23;;;2.80;;
21046;SDS011;10682;50.874;3.656;2023-09-19T16:56:00;15.77;;;2.92;;
21046;SDS011;10682;50.874;3.656;2023-09-19T16:58:37;13.57;;;2.78;;
21046;SDS011;10682;50.874;3.656;2023-09-19T17:01:06;9.73;;;2.78;;
21046;SDS011;10682;50.874;3.656;2023-09-19T17:03:40;14.07;;;3.05;;
21046;SDS011;10682;50.874;3.656;2023-09-19T17:06:16;10.30;;;2.70;;
21046;SDS011;10682;50.874;3.656;2023-09-19T17:09:00;11.77;;;2.40;;
21046;SDS011;10682;50.874;3.656;2023-09-19T17:14:40;11.65;;;2.85;;
21046;SDS011;10682;50.874;3.656;2023-09-19T17:17:25;12.88;;;3.10;;
21046;SDS011;10682;50.874;3.656;2023-09-19T17:19:54;10.88;;;2.70;;
21046;SDS011;10682;50.874;3.656;2023-09-19T17:22:28;10.48;;;2.53;;
21046;SDS011;10682;50.874;3.656;2023-09-19T17:25:14;18.25;;;2.63;;
21046;SDS011;10682;50.874;3.656;2023-09-19T17:27:48;12.50;;;2.60;;
21046;SDS011;10682;50.874;3.656;2023-09-19T17:30:16;8.13;;;2.20;;
21046;SDS011;10682;50.874;3.656;2023-09-19T17:32:54;10.23;;;2.33;;
21046;SDS011;10682;50.874;3.656;2023-09-19T17:35:43;11.85;;;2.33;;
21046;SDS011;10682;50.874;3.656;2023-09-19T17:38:28;12.02;;;2.58;;
21046;SDS011;10682;50.874;3.656;2023-09-19T17:41:54;13.38;;;2.88;;
21046;SDS011;10682;50.874;3.656;2023-09-19T17:44:23;11.73;;;3.00;;
21046;SDS011;10682;50.874;3.656;2023-09-19T17:47:05;10.82;;;2.90;;
21046;SDS011;10682;50.874;3.656;2023-09-19T17:52:15;11.27;;;2.70;;
21046;SDS011;10682;50.874;3.656;2023-09-19T17:55:13;9.55;;;2.30;;
21046;SDS011;10682;50.874;3.656;2023-09-19T17:58:15;12.98;;;2.63;;
21046;SDS011;10682;50.874;3.656;2023-09-19T18:01:13;8.68;;;2.60;;
21046;SDS011;10682;50.874;3.656;2023-09-19T18:03:54;11.32;;;2.40;;
21046;SDS011;10682;50.874;3.656;2023-09-19T18:06:37;9.93;;;2.95;;
21046;SDS011;10682;50.874;3.656;2023-09-19T18:09:10;17.45;;;2.88;;
21046;SDS011;10682;50.874;3.656;2023-09-19T18:11:54;13.32;;;2.92;;
21046;SDS011;10682;50.874;3.656;2023-09-19T18:14:31;10.90;;;2.40;;
21046;SDS011;10682;50.874;3.656;2023-09-19T18:18:12;12.25;;;2.53;;
21046;SDS011;10682;50.874;3.656;2023-09-19T18:20:44;7.70;;;2.15;;
21046;SDS011;10682;50.874;3.656;2023-09-19T18:23:51;9.88;;;2.58;;